createdAt,value
2019-02-10T00:00:57.194Z,6.87
2019-02-10T00:01:57.645Z,6.74
2019-02-10T00:02:57.403Z,6.77
2019-02-10T00:03:57.645Z,6.87
2019-02-10T00:04:57.405Z,6.78
2019-02-10T00:05:57.081Z,6.75
2019-02-10T00:06:57.602Z,6.81
2019-02-10T00:07:57.572Z,6.88
2019-02-10T00:08:59.430Z,6.74
2019-02-10T00:09:57.554Z,6.72
2019-02-10T00:10:57.530Z,6.74
2019-02-10T00:11:57.701Z,6.85
2019-02-10T00:12:57.514Z,6.87
2019-02-10T00:13:57.317Z,6.78
2019-02-10T00:14:57.026Z,6.85
2019-02-10T00:15:57.509Z,6.79
2019-02-10T00:16:57.514Z,6.85
2019-02-10T00:17:57.478Z,6.89
2019-02-10T00:18:57.470Z,6.88
2019-02-10T00:19:56.967Z,6.95
2019-02-10T00:20:57.236Z,7.07
2019-02-10T00:21:57.225Z,7.02
2019-02-10T00:22:57.204Z,7.1
2019-02-10T00:23:57.193Z,7.06
2019-02-10T00:24:57.181Z,7.03
2019-02-10T00:25:56.949Z,7.07
2019-02-10T00:26:57.466Z,7.17
2019-02-10T00:27:57.216Z,7.15
2019-02-10T00:28:57.150Z,7.15
2019-02-10T00:29:57.148Z,7.17
2019-02-10T00:30:56.881Z,7.24
2019-02-10T00:31:57.110Z,7.23
2019-02-10T00:32:57.350Z,7.2
2019-02-10T00:33:56.847Z,7.23
2019-02-10T00:34:57.423Z,7.25
2019-02-10T00:35:57.107Z,7.15
2019-02-10T00:36:57.070Z,7.07
2019-02-10T00:37:57.070Z,7.06
2019-02-10T00:38:57.065Z,7.1
2019-02-10T00:39:57.071Z,7.05
2019-02-10T00:40:56.782Z,7.06
2019-02-10T00:41:56.770Z,6.97
2019-02-10T00:42:57.009Z,7.07
2019-02-10T00:43:57.292Z,6.99
2019-02-10T00:44:57.035Z,7
2019-02-10T00:45:57.018Z,6.96
2019-02-10T00:46:56.989Z,6.87
2019-02-10T00:47:57.332Z,6.96
2019-02-10T00:48:56.962Z,6.99
2019-02-10T00:49:56.712Z,7.06
2019-02-10T00:50:56.999Z,6.97
2019-02-10T00:51:56.711Z,6.97
2019-02-10T00:52:57.181Z,7
2019-02-10T00:53:57.189Z,7
2019-02-10T00:54:57.179Z,7.03
2019-02-10T00:55:56.895Z,7.05
2019-02-10T00:56:56.899Z,7.06
2019-02-10T00:57:56.898Z,7.05
2019-02-10T00:58:56.879Z,7.1
2019-02-10T00:59:56.876Z,7.13
2019-02-10T01:00:57.199Z,7.13
2019-02-10T01:01:57.123Z,7.06
2019-02-10T01:02:56.864Z,7.07
2019-02-10T01:03:56.839Z,7.02
2019-02-10T01:04:57.087Z,7.05
2019-02-10T01:05:56.570Z,7.02
2019-02-10T01:06:56.580Z,7.06
2019-02-10T01:07:56.831Z,7.06
2019-02-10T01:08:57.092Z,7.14
2019-02-10T01:09:56.863Z,7.03
2019-02-10T01:10:57.047Z,7.02
2019-02-10T01:11:57.058Z,6.97
2019-02-10T01:12:56.795Z,6.93
2019-02-10T01:13:57.017Z,6.88
2019-02-10T01:14:57.007Z,6.96
2019-02-10T01:15:56.743Z,6.89
2019-02-10T01:16:56.737Z,6.85
2019-02-10T01:17:57.062Z,6.79
2019-02-10T01:18:56.969Z,6.84
2019-02-10T01:19:56.707Z,6.77
2019-02-10T01:20:56.466Z,6.74
2019-02-10T01:21:56.945Z,6.85
2019-02-10T01:22:56.951Z,6.77
2019-02-10T01:23:56.686Z,6.88
2019-02-10T01:24:56.909Z,6.96
2019-02-10T01:25:56.902Z,6.88
2019-02-10T01:26:56.892Z,6.95
2019-02-10T01:27:56.650Z,6.88
2019-02-10T01:28:56.372Z,6.92
2019-02-10T01:29:56.626Z,6.88
2019-02-10T01:30:56.880Z,6.96
2019-02-10T01:31:56.644Z,6.87
2019-02-10T01:32:56.609Z,6.89
2019-02-10T01:33:56.834Z,6.88
2019-02-10T01:34:56.576Z,6.85
2019-02-10T01:35:56.575Z,6.87
2019-02-10T01:36:56.570Z,6.93
2019-02-10T01:37:56.815Z,6.84
2019-02-10T01:38:56.812Z,7
2019-02-10T01:39:56.585Z,7.06
2019-02-10T01:40:56.547Z,7.11
2019-02-10T01:41:56.566Z,7.13
2019-02-10T01:42:56.506Z,7.1
2019-02-10T01:43:56.241Z,7.14
2019-02-10T01:44:56.257Z,7.15
2019-02-10T01:45:56.755Z,7.21
2019-02-10T01:46:56.743Z,7.15
2019-02-10T01:47:56.725Z,7.2
2019-02-10T01:48:56.734Z,7.17
2019-02-10T01:49:56.485Z,7.15
2019-02-10T01:50:56.894Z,7.15
2019-02-10T01:51:56.705Z,7.11
2019-02-10T01:52:56.436Z,7.11
2019-02-10T01:53:56.454Z,7.06
2019-02-10T01:54:56.163Z,7.13
2019-02-10T01:55:56.653Z,7.1
2019-02-10T01:56:56.650Z,7.1
2019-02-10T01:57:56.388Z,7
2019-02-10T01:58:56.375Z,6.99
2019-02-10T01:59:56.616Z,7
2019-02-10T02:00:56.627Z,7.03
2019-02-10T02:01:56.387Z,6.96
2019-02-10T02:02:56.342Z,7
2019-02-10T02:03:56.082Z,7.05
2019-02-10T02:04:56.585Z,7.03
2019-02-10T02:05:56.361Z,7
2019-02-10T02:07:02.400Z,6.96
2019-02-10T02:07:56.308Z,6.97
2019-02-10T02:08:56.089Z,6.88
2019-02-10T02:09:56.283Z,6.88
2019-02-10T02:10:56.281Z,6.85
2019-02-10T02:11:56.520Z,6.96
2019-02-10T02:12:56.521Z,6.87
2019-02-10T02:13:56.515Z,6.92
2019-02-10T02:14:55.994Z,6.92
2019-02-10T02:15:56.234Z,6.85
2019-02-10T02:16:56.482Z,6.77
2019-02-10T02:17:56.472Z,6.84
2019-02-10T02:18:56.470Z,6.84
2019-02-10T02:19:56.217Z,6.84
2019-02-10T02:20:56.194Z,6.77
2019-02-10T02:21:56.425Z,6.81
2019-02-10T02:22:56.413Z,6.77
2019-02-10T02:23:56.163Z,6.78
2019-02-10T02:24:56.420Z,6.66
2019-02-10T02:25:56.152Z,6.72
2019-02-10T02:26:56.388Z,6.64
2019-02-10T02:27:56.149Z,6.69
2019-02-10T02:28:56.129Z,6.74
2019-02-10T02:29:56.370Z,6.77
2019-02-10T02:30:56.360Z,6.74
2019-02-10T02:31:56.372Z,6.84
2019-02-10T02:32:55.858Z,6.85
2019-02-10T02:33:56.089Z,6.89
2019-02-10T02:34:56.060Z,6.77
2019-02-10T02:35:56.073Z,6.89
2019-02-10T02:36:55.832Z,6.95
2019-02-10T02:37:56.040Z,7.14
2019-02-10T02:38:56.283Z,7.18
2019-02-10T02:39:56.294Z,7.25
2019-02-10T02:40:56.260Z,7.23
2019-02-10T02:41:56.003Z,7.33
2019-02-10T02:42:55.995Z,7.38
2019-02-10T02:43:56.234Z,7.43
2019-02-10T02:44:56.236Z,7.43
2019-02-10T02:45:55.967Z,7.53
2019-02-10T02:46:56.209Z,7.57
2019-02-10T02:47:56.201Z,7.48
2019-02-10T02:48:56.190Z,7.58
2019-02-10T02:49:55.949Z,7.57
2019-02-10T02:50:56.173Z,7.69
2019-02-10T02:51:55.911Z,7.73
2019-02-10T02:52:56.153Z,7.75
2019-02-10T02:53:55.902Z,7.58
2019-02-10T02:54:55.896Z,7.57
2019-02-10T02:55:56.131Z,7.56
2019-02-10T02:56:55.874Z,7.5
2019-02-10T02:57:56.102Z,7.51
2019-02-10T02:58:56.096Z,7.47
2019-02-10T02:59:55.844Z,7.47
2019-02-10T03:00:56.081Z,7.42
2019-02-10T03:01:56.103Z,7.36
2019-02-10T03:02:55.594Z,7.48
2019-02-10T03:03:55.845Z,7.4
2019-02-10T03:04:56.041Z,7.4
2019-02-10T03:05:55.817Z,7.47
2019-02-10T03:06:56.048Z,7.48
2019-02-10T03:07:55.790Z,7.43
2019-02-10T03:08:55.793Z,7.47
2019-02-10T03:09:56.027Z,7.51
2019-02-10T03:10:56.001Z,7.36
2019-02-10T03:11:55.999Z,7.39
2019-02-10T03:12:55.996Z,7.39
2019-02-10T03:13:55.486Z,7.33
2019-02-10T03:14:55.956Z,7.39
2019-02-10T03:15:55.958Z,7.31
2019-02-10T03:16:55.445Z,7.29
2019-02-10T03:17:55.950Z,7.25
2019-02-10T03:18:57.860Z,7.29
2019-02-10T03:19:55.924Z,7.28
2019-02-10T03:20:55.676Z,7.25
2019-02-10T03:21:55.417Z,7.23
2019-02-10T03:22:55.404Z,7.2
2019-02-10T03:23:55.910Z,7.17
2019-02-10T03:24:55.895Z,7.24
2019-02-10T03:25:55.865Z,7.25
2019-02-10T03:26:55.877Z,7.32
2019-02-10T03:27:55.852Z,7.35
2019-02-10T03:28:55.835Z,7.38
2019-02-10T03:29:55.591Z,7.38
2019-02-10T03:30:55.843Z,7.4
2019-02-10T03:31:55.882Z,7.57
2019-02-10T03:32:55.830Z,7.58
2019-02-10T03:33:55.804Z,7.72
2019-02-10T03:34:55.550Z,7.75
2019-02-10T03:35:55.799Z,7.7
2019-02-10T03:36:55.279Z,7.79
2019-02-10T03:37:55.329Z,7.76
2019-02-10T03:38:55.903Z,7.72
2019-02-10T03:39:55.761Z,7.6
2019-02-10T03:40:55.499Z,7.58
2019-02-10T03:41:55.741Z,7.54
2019-02-10T03:42:55.476Z,7.47
2019-02-10T03:43:55.725Z,7.5
2019-02-10T03:44:55.719Z,7.53
2019-02-10T03:45:55.444Z,7.47
2019-02-10T03:46:55.711Z,7.48
2019-02-10T03:47:55.479Z,7.56
2019-02-10T03:48:55.447Z,7.57
2019-02-10T03:49:55.695Z,7.56
2019-02-10T03:50:55.650Z,7.58
2019-02-10T03:51:55.657Z,7.53
2019-02-10T03:52:55.652Z,7.47
2019-02-10T03:53:55.631Z,7.45
2019-02-10T03:54:55.631Z,7.54
2019-02-10T03:55:55.633Z,7.56
2019-02-10T03:56:55.633Z,7.51
2019-02-10T03:57:55.595Z,7.63
2019-02-10T03:58:55.590Z,7.56
2019-02-10T03:59:55.593Z,7.53
2019-02-10T04:00:55.331Z,7.6
2019-02-10T04:01:55.560Z,7.63
2019-02-10T04:02:55.569Z,7.72
2019-02-10T04:03:55.599Z,7.79
2019-02-10T04:04:55.308Z,7.72
2019-02-10T04:05:55.525Z,7.82
2019-02-10T04:06:55.533Z,7.87
2019-02-10T04:07:55.521Z,7.94
2019-02-10T04:08:55.545Z,7.97
2019-02-10T04:09:55.550Z,7.95
2019-02-10T04:10:55.245Z,7.93
2019-02-10T04:11:54.994Z,8.01
2019-02-10T04:12:55.462Z,8
2019-02-10T04:13:55.465Z,8.06
2019-02-10T04:14:55.217Z,7.95
2019-02-10T04:15:55.437Z,7.93
2019-02-10T04:16:55.430Z,8
2019-02-10T04:17:55.426Z,7.95
2019-02-10T04:18:55.411Z,7.94
2019-02-10T04:19:55.415Z,7.94
2019-02-10T04:20:55.395Z,7.9
2019-02-10T04:21:55.412Z,7.93
2019-02-10T04:22:55.130Z,7.88
2019-02-10T04:23:55.380Z,7.83
2019-02-10T04:24:55.389Z,7.97
2019-02-10T04:25:55.385Z,7.93
2019-02-10T04:26:55.096Z,7.94
2019-02-10T04:27:55.132Z,7.87
2019-02-10T04:28:55.338Z,7.9
2019-02-10T04:29:55.081Z,7.85
2019-02-10T04:30:55.080Z,7.87
2019-02-10T04:31:55.332Z,7.91
2019-02-10T04:32:55.323Z,7.94
2019-02-10T04:33:56.900Z,7.8
2019-02-10T04:34:55.306Z,7.77
2019-02-10T04:35:55.340Z,7.83
2019-02-10T04:36:55.065Z,7.69
2019-02-10T04:37:55.266Z,7.72
2019-02-10T04:38:55.274Z,7.58
2019-02-10T04:39:54.997Z,7.6
2019-02-10T04:40:55.001Z,7.58
2019-02-10T04:41:55.242Z,7.53
2019-02-10T04:42:55.222Z,7.58
2019-02-10T04:43:55.213Z,7.38
2019-02-10T04:44:55.248Z,7.45
2019-02-10T04:45:55.200Z,7.33
2019-02-10T04:46:55.188Z,7.43
2019-02-10T04:47:54.949Z,7.43
2019-02-10T04:48:54.929Z,7.32
2019-02-10T04:49:55.173Z,7.35
2019-02-10T04:50:54.960Z,7.35
2019-02-10T04:51:54.670Z,7.39
2019-02-10T04:52:54.916Z,7.43
2019-02-10T04:53:55.141Z,7.45
2019-02-10T04:54:55.151Z,7.47
2019-02-10T04:55:54.631Z,7.4
2019-02-10T04:56:54.884Z,7.53
2019-02-10T04:57:55.117Z,7.56
2019-02-10T04:58:54.863Z,7.56
2019-02-10T04:59:55.111Z,7.57
2019-02-10T05:00:54.845Z,7.6
2019-02-10T05:01:54.835Z,7.54
2019-02-10T05:02:55.078Z,7.54
2019-02-10T05:03:55.089Z,7.73
2019-02-10T05:04:55.081Z,7.7
2019-02-10T05:05:54.576Z,7.72
2019-02-10T05:06:54.551Z,7.83
2019-02-10T05:07:59.559Z,7.91
2019-02-10T05:08:55.022Z,7.93
2019-02-10T05:09:54.534Z,7.97
2019-02-10T05:10:55.014Z,8.03
2019-02-10T05:11:54.768Z,8
2019-02-10T05:12:55.011Z,8.05
2019-02-10T05:13:54.768Z,8.03
2019-02-10T05:14:54.762Z,8.08
2019-02-10T05:15:54.996Z,8.16
2019-02-10T05:16:54.495Z,8.16
2019-02-10T05:17:54.743Z,8.15
2019-02-10T05:18:54.958Z,8.18
2019-02-10T05:19:54.705Z,8.19
2019-02-10T05:20:54.975Z,8.2
2019-02-10T05:21:54.941Z,8.16
2019-02-10T05:22:54.935Z,8.19
2019-02-10T05:24:02.960Z,8.16
2019-02-10T05:24:54.410Z,8.16
2019-02-10T05:25:54.937Z,8.16
2019-02-10T05:26:54.967Z,8.12
2019-02-10T05:27:54.382Z,8.19
2019-02-10T05:28:54.890Z,8.15
2019-02-10T05:29:54.874Z,8.18
2019-02-10T05:30:54.871Z,8.13
2019-02-10T05:31:54.611Z,8.03
2019-02-10T05:32:54.886Z,8.03
2019-02-10T05:33:54.858Z,8.03
2019-02-10T05:34:54.598Z,8.09
2019-02-10T05:35:54.833Z,8.05
2019-02-10T05:36:54.583Z,8.01
2019-02-10T05:38:03.471Z,8.06
2019-02-10T05:38:54.829Z,8.19
2019-02-10T05:39:54.818Z,8.08
2019-02-10T05:40:54.571Z,8.15
2019-02-10T05:41:54.560Z,8.18
2019-02-10T05:42:54.816Z,8.13
2019-02-10T05:43:54.798Z,8.28
2019-02-10T05:44:54.769Z,8.3
2019-02-10T05:45:54.255Z,8.28
2019-02-10T05:46:54.813Z,8.45
2019-02-10T05:47:54.514Z,8.51
2019-02-10T05:48:54.510Z,8.66
2019-02-10T05:49:54.487Z,8.55
2019-02-10T05:50:54.476Z,8.69
2019-02-10T05:51:54.722Z,8.78
2019-02-10T05:52:54.716Z,8.7
2019-02-10T05:53:54.753Z,8.76
2019-02-10T05:54:54.688Z,8.82
2019-02-10T05:55:54.714Z,8.88
2019-02-10T05:56:54.720Z,8.84
2019-02-10T05:57:54.408Z,8.87
2019-02-10T05:58:54.646Z,8.71
2019-02-10T05:59:54.147Z,8.76
2019-02-10T06:00:54.685Z,8.74
2019-02-10T06:01:54.627Z,8.66
2019-02-10T06:02:54.647Z,8.56
2019-02-10T06:03:54.361Z,8.61
2019-02-10T06:04:54.851Z,8.49
2019-02-10T06:05:54.108Z,8.38
2019-02-10T06:06:54.590Z,8.45
2019-02-10T06:07:54.578Z,8.33
2019-02-10T06:08:54.583Z,8.3
2019-02-10T06:09:54.572Z,8.24
2019-02-10T06:10:54.556Z,8.26
2019-02-10T06:11:54.565Z,8.3
2019-02-10T06:12:54.316Z,8.37
2019-02-10T06:13:54.538Z,8.41
2019-02-10T06:14:54.290Z,8.33
2019-02-10T06:15:54.539Z,8.3
2019-02-10T06:16:54.275Z,8.27
2019-02-10T06:17:54.508Z,8.31
2019-02-10T06:18:54.519Z,8.44
2019-02-10T06:19:54.249Z,8.38
2019-02-10T06:20:54.482Z,8.38
2019-02-10T06:21:54.242Z,8.45
2019-02-10T06:22:53.976Z,8.41
2019-02-10T06:23:54.472Z,8.37
2019-02-10T06:24:53.963Z,8.41
2019-02-10T06:25:54.209Z,8.41
2019-02-10T06:26:54.451Z,8.38
2019-02-10T06:27:54.210Z,8.41
2019-02-10T06:28:54.173Z,8.37
2019-02-10T06:29:54.425Z,8.38
2019-02-10T06:30:53.976Z,8.41
2019-02-10T06:31:54.416Z,8.36
2019-02-10T06:32:54.170Z,8.37
2019-02-10T06:33:54.163Z,8.36
2019-02-10T06:34:54.392Z,8.46
2019-02-10T06:35:54.145Z,8.41
2019-02-10T06:36:53.871Z,8.46
2019-02-10T06:37:54.128Z,8.42
2019-02-10T06:38:54.115Z,8.51
2019-02-10T06:39:54.128Z,8.53
2019-02-10T06:40:53.857Z,8.53
2019-02-10T06:41:54.085Z,8.58
2019-02-10T06:42:54.092Z,8.63
2019-02-10T06:43:53.833Z,8.55
2019-02-10T06:44:54.070Z,8.52
2019-02-10T06:45:54.301Z,8.6
2019-02-10T06:46:54.285Z,8.55
2019-02-10T06:47:54.288Z,8.69
2019-02-10T06:48:54.279Z,8.6
2019-02-10T06:49:53.764Z,8.61
2019-02-10T06:50:54.269Z,8.6
2019-02-10T06:51:54.008Z,8.55
2019-02-10T06:52:54.239Z,8.7
2019-02-10T06:53:53.734Z,8.7
2019-02-10T06:54:54.228Z,8.79
2019-02-10T06:55:53.727Z,8.84
2019-02-10T06:56:53.985Z,8.79
2019-02-10T06:57:54.232Z,8.85
2019-02-10T06:58:54.213Z,8.92
2019-02-10T06:59:54.206Z,8.97
2019-02-10T07:00:53.937Z,8.99
2019-02-10T07:01:53.926Z,9.02
2019-02-10T07:02:53.678Z,8.94
2019-02-10T07:03:53.938Z,9.03
2019-02-10T07:04:53.905Z,9.06
2019-02-10T07:05:53.677Z,8.97
2019-02-10T07:06:53.892Z,9.11
2019-02-10T07:07:53.896Z,8.99
2019-02-10T07:08:54.139Z,9.03
2019-02-10T07:09:53.623Z,8.95
2019-02-10T07:10:53.876Z,8.95
2019-02-10T07:11:54.111Z,8.89
2019-02-10T07:12:53.868Z,8.91
2019-02-10T07:13:53.634Z,8.85
2019-02-10T07:14:53.852Z,8.85
2019-02-10T07:15:54.090Z,8.88
2019-02-10T07:16:53.818Z,8.87
2019-02-10T07:17:53.817Z,8.84
2019-02-10T07:18:53.809Z,8.78
2019-02-10T07:19:54.119Z,8.73
2019-02-10T07:20:53.810Z,8.71
2019-02-10T07:21:53.788Z,8.82
2019-02-10T07:22:54.051Z,8.71
2019-02-10T07:23:54.046Z,8.71
2019-02-10T07:24:54.026Z,8.66
2019-02-10T07:25:53.763Z,8.71
2019-02-10T07:26:54.009Z,8.71
2019-02-10T07:27:53.772Z,8.73
2019-02-10T07:28:53.497Z,8.66
2019-02-10T07:29:53.748Z,8.74
2019-02-10T07:30:53.730Z,8.69
2019-02-10T07:31:53.736Z,8.74
2019-02-10T07:32:53.731Z,8.79
2019-02-10T07:33:53.964Z,8.89
2019-02-10T07:34:53.954Z,8.87
2019-02-10T07:35:53.960Z,8.91
2019-02-10T07:36:53.443Z,8.92
2019-02-10T07:37:53.682Z,8.95
2019-02-10T07:38:53.919Z,8.99
2019-02-10T07:39:53.920Z,9.03
2019-02-10T07:40:53.664Z,8.99
2019-02-10T07:41:53.655Z,9.08
2019-02-10T07:42:53.418Z,9.06
2019-02-10T07:43:53.648Z,9.13
2019-02-10T07:44:53.701Z,9.11
2019-02-10T07:45:53.371Z,9.18
2019-02-10T07:46:53.635Z,9.03
2019-02-10T07:47:54.680Z,9.11
2019-02-10T07:48:53.858Z,9.14
2019-02-10T07:49:53.618Z,9.16
2019-02-10T07:50:53.855Z,9.21
2019-02-10T07:51:53.581Z,9.26
2019-02-10T07:52:53.584Z,9.19
2019-02-10T07:53:53.334Z,9.22
2019-02-10T07:54:53.815Z,9.29
2019-02-10T07:55:54.354Z,9.4
2019-02-10T07:56:53.810Z,9.29
2019-02-10T07:57:53.550Z,9.37
2019-02-10T07:58:53.528Z,9.37
2019-02-10T07:59:53.778Z,9.36
2019-02-10T08:00:53.533Z,9.44
2019-02-10T08:01:53.535Z,9.39
2019-02-10T08:02:53.520Z,9.4
2019-02-10T08:03:53.514Z,9.47
2019-02-10T08:04:53.747Z,9.5
2019-02-10T08:05:59.779Z,9.59
2019-02-10T08:06:53.242Z,9.62
2019-02-10T08:07:53.473Z,9.55
2019-02-10T08:08:53.234Z,9.56
2019-02-10T08:09:53.479Z,9.61
2019-02-10T08:10:53.225Z,9.64
2019-02-10T08:11:53.458Z,9.69
2019-02-10T08:12:53.445Z,9.72
2019-02-10T08:13:53.202Z,9.74
2019-02-10T08:14:53.703Z,9.74
2019-02-10T08:15:53.686Z,9.79
2019-02-10T08:16:53.684Z,9.77
2019-02-10T08:17:53.636Z,9.84
2019-02-10T08:18:53.663Z,9.83
2019-02-10T08:19:53.164Z,9.77
2019-02-10T08:20:53.661Z,9.89
2019-02-10T08:21:53.636Z,9.95
2019-02-10T08:22:53.401Z,9.92
2019-02-10T08:23:53.626Z,10.02
2019-02-10T08:24:53.373Z,10.02
2019-02-10T08:25:53.378Z,10.09
2019-02-10T08:26:53.382Z,10.05
2019-02-10T08:27:53.601Z,10.16
2019-02-10T08:28:53.627Z,10.1
2019-02-10T08:29:53.352Z,10.09
2019-02-10T08:30:53.584Z,10.26
2019-02-10T08:31:53.577Z,10.31
2019-02-10T08:32:53.567Z,10.31
2019-02-10T08:33:53.564Z,10.34
2019-02-10T08:34:53.318Z,10.42
2019-02-10T08:35:53.544Z,10.51
2019-02-10T08:36:54.092Z,10.49
2019-02-10T08:37:53.328Z,10.61
2019-02-10T08:38:59.034Z,10.59
2019-02-10T08:39:53.291Z,10.57
2019-02-10T08:40:53.520Z,10.64
2019-02-10T08:41:53.300Z,10.68
2019-02-10T08:42:53.280Z,10.78
2019-02-10T08:43:53.517Z,10.75
2019-02-10T08:44:53.263Z,10.69
2019-02-10T08:45:53.247Z,10.71
2019-02-10T08:46:52.989Z,10.72
2019-02-10T08:47:53.509Z,10.78
2019-02-10T08:48:53.235Z,10.78
2019-02-10T08:49:53.476Z,10.76
2019-02-10T08:50:53.239Z,10.67
2019-02-10T08:51:53.013Z,10.63
2019-02-10T08:52:56.866Z,10.54
2019-02-10T08:53:53.448Z,10.57
2019-02-10T08:54:53.201Z,10.61
2019-02-10T08:55:53.192Z,10.61
2019-02-10T08:56:53.195Z,10.54
2019-02-10T08:57:53.187Z,10.6
2019-02-10T08:58:52.943Z,10.6
2019-02-10T08:59:52.925Z,10.61
2019-02-10T09:00:52.921Z,10.61
2019-02-10T09:01:54.246Z,10.63
2019-02-10T09:02:53.168Z,10.64
2019-02-10T09:03:53.411Z,10.59
2019-02-10T09:04:52.914Z,10.63
2019-02-10T09:05:53.145Z,10.68
2019-02-10T09:06:53.454Z,10.72
2019-02-10T09:07:52.885Z,10.71
2019-02-10T09:08:53.127Z,10.78
2019-02-10T09:09:53.154Z,10.82
2019-02-10T09:10:53.369Z,10.9
2019-02-10T09:11:53.375Z,10.96
2019-02-10T09:12:54.880Z,10.87
2019-02-10T09:13:53.104Z,11.07
2019-02-10T09:14:53.091Z,11.05
2019-02-10T09:15:53.347Z,10.99
2019-02-10T09:16:53.133Z,11.14
2019-02-10T09:17:53.098Z,11.12
2019-02-10T09:18:53.379Z,11.27
2019-02-10T09:19:53.083Z,11.32
2019-02-10T09:20:53.076Z,11.35
2019-02-10T09:21:53.370Z,11.33
2019-02-10T09:22:53.303Z,11.47
2019-02-10T09:23:53.053Z,11.37
2019-02-10T09:24:53.303Z,11.5
2019-02-10T09:25:53.051Z,11.57
2019-02-10T09:26:53.300Z,11.63
2019-02-10T09:27:52.806Z,11.66
2019-02-10T09:28:53.055Z,11.66
2019-02-10T09:29:53.276Z,11.69
2019-02-10T09:30:53.280Z,11.73
2019-02-10T09:31:53.044Z,11.73
2019-02-10T09:32:53.022Z,11.73
2019-02-10T09:33:53.010Z,11.77
2019-02-10T09:34:53.253Z,11.78
2019-02-10T09:35:52.994Z,11.73
2019-02-10T09:36:53.318Z,11.75
2019-02-10T09:37:53.243Z,11.77
2019-02-10T09:38:52.996Z,11.77
2019-02-10T09:39:52.988Z,11.75
2019-02-10T09:40:52.995Z,11.81
2019-02-10T09:41:53.247Z,11.88
2019-02-10T09:42:52.975Z,11.87
2019-02-10T09:43:52.978Z,11.91
2019-02-10T09:44:53.219Z,11.91
2019-02-10T09:45:53.216Z,11.95
2019-02-10T09:46:52.705Z,12.09
2019-02-10T09:47:53.209Z,12.18
2019-02-10T09:48:52.951Z,12.27
2019-02-10T09:49:53.204Z,12.35
2019-02-10T09:50:53.192Z,12.36
2019-02-10T09:51:53.254Z,12.37
2019-02-10T09:52:52.947Z,12.47
2019-02-10T09:53:53.180Z,12.47
2019-02-10T09:54:53.187Z,12.54
2019-02-10T09:55:52.937Z,12.54
2019-02-10T09:56:53.162Z,12.45
2019-02-10T09:57:52.922Z,12.5
2019-02-10T09:58:52.923Z,12.57
2019-02-10T09:59:53.159Z,12.65
2019-02-10T10:00:52.666Z,12.68
2019-02-10T10:01:52.905Z,12.78
2019-02-10T10:02:52.916Z,12.78
2019-02-10T10:03:53.168Z,12.78
2019-02-10T10:04:53.157Z,12.8
2019-02-10T10:05:53.140Z,12.9
2019-02-10T10:06:52.950Z,12.98
2019-02-10T10:07:52.895Z,12.98
2019-02-10T10:08:52.649Z,13.01
2019-02-10T10:09:53.133Z,13.05
2019-02-10T10:10:53.136Z,13.03
2019-02-10T10:11:53.138Z,13.08
2019-02-10T10:12:53.132Z,13.15
2019-02-10T10:13:52.874Z,13.22
2019-02-10T10:14:52.631Z,13.37
2019-02-10T10:15:53.108Z,13.41
2019-02-10T10:16:53.116Z,13.49
2019-02-10T10:17:53.137Z,13.47
2019-02-10T10:18:52.864Z,13.56
2019-02-10T10:19:54.863Z,13.6
2019-02-10T10:20:53.112Z,13.68
2019-02-10T10:21:53.164Z,13.79
2019-02-10T10:22:53.094Z,13.85
2019-02-10T10:23:53.103Z,13.92
2019-02-10T10:24:55.490Z,14
2019-02-10T10:25:53.086Z,13.97
2019-02-10T10:26:53.112Z,14.15
2019-02-10T10:27:53.110Z,14.11
2019-02-10T10:28:52.589Z,14.1
2019-02-10T10:29:53.087Z,14.17
2019-02-10T10:30:53.087Z,14.23
2019-02-10T10:31:53.076Z,14.23
2019-02-10T10:32:52.835Z,14.23
2019-02-10T10:33:53.086Z,14.35
2019-02-10T10:34:52.821Z,14.33
2019-02-10T10:35:53.096Z,14.33
2019-02-10T10:36:53.174Z,14.36
2019-02-10T10:37:53.093Z,14.4
2019-02-10T10:38:52.819Z,14.44
2019-02-10T10:39:54.349Z,14.41
2019-02-10T10:40:53.602Z,14.43
2019-02-10T10:41:52.812Z,14.41
2019-02-10T10:42:53.075Z,14.47
2019-02-10T10:43:52.816Z,14.48
2019-02-10T10:44:52.829Z,14.55
2019-02-10T10:45:52.822Z,14.44
2019-02-10T10:46:53.066Z,14.51
2019-02-10T10:47:53.053Z,14.58
2019-02-10T10:48:53.059Z,14.62
2019-02-10T10:49:53.046Z,14.63
2019-02-10T10:50:53.043Z,14.65
2019-02-10T10:51:53.096Z,14.78
2019-02-10T10:52:52.808Z,14.84
2019-02-10T10:53:52.803Z,14.92
2019-02-10T10:54:52.802Z,15.1
2019-02-10T10:55:53.037Z,15.06
2019-02-10T10:56:53.038Z,15.18
2019-02-10T10:57:53.042Z,15.27
2019-02-10T10:58:53.043Z,15.33
2019-02-10T10:59:52.799Z,15.35
2019-02-10T11:00:53.036Z,15.49
2019-02-10T11:01:52.773Z,15.58
2019-02-10T11:02:53.027Z,15.47
2019-02-10T11:03:53.032Z,15.44
2019-02-10T11:04:53.037Z,15.54
2019-02-10T11:05:53.026Z,15.57
2019-02-10T11:06:53.075Z,15.61
2019-02-10T11:07:52.769Z,15.58
2019-02-10T11:08:52.772Z,15.55
2019-02-10T11:09:52.795Z,15.54
2019-02-10T11:10:52.773Z,15.68
2019-02-10T11:11:54.417Z,15.67
2019-02-10T11:12:53.032Z,15.73
2019-02-10T11:13:53.027Z,15.58
2019-02-10T11:14:52.769Z,15.52
2019-02-10T11:15:53.019Z,15.64
2019-02-10T11:16:53.007Z,15.51
2019-02-10T11:17:53.008Z,15.58
2019-02-10T11:18:52.773Z,15.49
2019-02-10T11:19:53.017Z,15.65
2019-02-10T11:20:52.769Z,15.61
2019-02-10T11:21:53.074Z,15.55
2019-02-10T11:22:53.003Z,15.65
2019-02-10T11:23:52.514Z,15.65
2019-02-10T11:24:52.752Z,15.55
2019-02-10T11:25:52.755Z,15.51
2019-02-10T11:26:52.994Z,15.64
2019-02-10T11:27:52.998Z,15.61
2019-02-10T11:28:53.027Z,15.65
2019-02-10T11:29:52.755Z,15.73
2019-02-10T11:30:52.765Z,15.62
2019-02-10T11:31:52.990Z,15.61
2019-02-10T11:32:52.744Z,15.76
2019-02-10T11:33:53.005Z,15.7
2019-02-10T11:34:52.989Z,15.76
2019-02-10T11:35:52.998Z,15.79
2019-02-10T11:36:53.602Z,15.75
2019-02-10T11:37:52.748Z,15.82
2019-02-10T11:38:52.990Z,15.82
2019-02-10T11:39:52.743Z,15.86
2019-02-10T11:40:52.745Z,15.91
2019-02-10T11:41:53.542Z,16.02
2019-02-10T11:42:52.741Z,16.04
2019-02-10T11:43:52.989Z,16.08
2019-02-10T11:44:52.995Z,16.04
2019-02-10T11:45:52.994Z,16.09
2019-02-10T11:46:52.746Z,16.02
2019-02-10T11:47:52.984Z,16.05
2019-02-10T11:48:52.490Z,16.05
2019-02-10T11:49:52.720Z,16.1
2019-02-10T11:50:52.746Z,16.16
2019-02-10T11:51:52.728Z,16.13
2019-02-10T11:52:52.721Z,16.15
2019-02-10T11:53:52.724Z,16.15
2019-02-10T11:54:52.739Z,16.13
2019-02-10T11:55:52.722Z,16.17
2019-02-10T11:56:52.972Z,16.21
2019-02-10T11:57:52.969Z,16.28
2019-02-10T11:58:52.721Z,16.29
2019-02-10T11:59:52.480Z,16.32
2019-02-10T12:00:52.733Z,16.46
2019-02-10T12:01:52.725Z,16.54
2019-02-10T12:02:52.736Z,16.58
2019-02-10T12:03:52.488Z,16.58
2019-02-10T12:04:52.977Z,16.58
2019-02-10T12:05:52.481Z,16.54
2019-02-10T12:06:52.965Z,16.66
2019-02-10T12:07:53.017Z,16.64
2019-02-10T12:08:52.956Z,16.6
2019-02-10T12:09:56.652Z,16.53
2019-02-10T12:10:52.714Z,16.5
2019-02-10T12:11:52.725Z,16.51
2019-02-10T12:12:52.715Z,16.5
2019-02-10T12:13:52.966Z,16.5
2019-02-10T12:14:52.963Z,16.39
2019-02-10T12:15:52.960Z,16.39
2019-02-10T12:16:52.726Z,16.33
2019-02-10T12:17:52.763Z,16.31
2019-02-10T12:18:52.961Z,16.35
2019-02-10T12:19:52.708Z,16.36
2019-02-10T12:20:52.735Z,16.32
2019-02-10T12:21:52.722Z,16.17
2019-02-10T12:22:55.357Z,16.28
2019-02-10T12:23:52.960Z,16.12
2019-02-10T12:24:52.958Z,16.15
2019-02-10T12:25:52.970Z,16.16
2019-02-10T12:26:52.732Z,16.16
2019-02-10T12:27:52.970Z,16.2
2019-02-10T12:28:52.709Z,16.08
2019-02-10T12:29:52.709Z,16.1
2019-02-10T12:30:52.716Z,16.17
2019-02-10T12:31:52.690Z,16.15
2019-02-10T12:32:52.695Z,16.21
2019-02-10T12:33:52.705Z,16.28
2019-02-10T12:34:52.963Z,16.31
2019-02-10T12:36:00.492Z,16.32
2019-02-10T12:36:52.703Z,16.29
2019-02-10T12:37:52.999Z,16.31
2019-02-10T12:38:52.448Z,16.36
2019-02-10T12:39:59.576Z,16.41
2019-02-10T12:40:53.001Z,16.42
2019-02-10T12:41:52.957Z,16.33
2019-02-10T12:42:52.702Z,16.41
2019-02-10T12:43:52.703Z,16.47
2019-02-10T12:44:52.950Z,16.46
2019-02-10T12:45:52.950Z,16.35
2019-02-10T12:46:52.690Z,16.15
2019-02-10T12:47:52.953Z,16.13
2019-02-10T12:48:52.433Z,16.15
2019-02-10T12:49:52.683Z,15.98
2019-02-10T12:50:52.714Z,15.9
2019-02-10T12:51:52.940Z,15.77
2019-02-10T12:52:52.729Z,15.73
2019-02-10T12:53:52.686Z,15.76
2019-02-10T12:54:52.690Z,15.65
2019-02-10T12:55:52.686Z,15.67
2019-02-10T12:56:52.416Z,15.62
2019-02-10T12:57:52.426Z,15.61
2019-02-10T12:58:52.671Z,15.49
2019-02-10T12:59:52.421Z,15.43
2019-02-10T13:00:52.656Z,15.27
2019-02-10T13:01:52.936Z,15.15
2019-02-10T13:02:52.916Z,15.09
2019-02-10T13:03:52.428Z,15.03
2019-02-10T13:04:52.660Z,15.09
2019-02-10T13:05:53.028Z,15.15
2019-02-10T13:06:52.650Z,15.15
2019-02-10T13:07:52.943Z,15.07
2019-02-10T13:08:52.645Z,15.1
2019-02-10T13:09:52.898Z,14.99
2019-02-10T13:10:52.652Z,14.97
2019-02-10T13:12:00.445Z,14.81
2019-02-10T13:12:52.426Z,14.68